sensor_id;sensor_type;location;lat;lon;timestamp;pressure;altitude;pressure_sealevel;temperature;humidity
19676;BME280;39539;52.202;9.876;2023-03-25T00:00:17;99405.31;;;8.73;100.00
19676;BME280;39539;52.202;9.876;2023-03-25T00:02:50;99394.84;;;8.78;100.00
19676;BME280;39539;52.202;9.876;2023-03-25T00:05:20;99394.84;;;8.78;100.00
19676;BME280;39539;52.202;9.876;2023-03-25T00:07:48;99387.91;;;8.77;100.00
19676;BME280;39539;52.202;9.876;2023-03-25T00:10:14;99379.84;;;8.72;100.00
19676;BME280;39539;52.202;9.876;2023-03-25T00:12:40;99383.88;;;8.74;100.00
19676;BME280;39539;52.202;9.876;2023-03-25T00:15:07;99371.78;;;8.67;100.00
19676;BME280;39539;52.202;9.876;2023-03-25T00:17:33;99372.22;;;8.64;100.00
19676;BME280;39539;52.202;9.876;2023-03-25T00:20:00;99385.22;;;8.65;100.00
19676;BME280;39539;52.202;9.876;2023-03-25T00:22:29;99383.50;;;8.59;100.00
19676;BME280;39539;52.202;9.876;2023-03-25T00:24:54;99372.31;;;8.57;100.00
19676;BME280;39539;52.202;9.876;2023-03-25T00:27:19;99376.34;;;8.60;100.00
19676;BME280;39539;52.202;9.876;2023-03-25T00:29:45;99383.69;;;8.58;100.00
19676;BME280;39539;52.202;9.876;2023-03-25T00:32:12;99378.97;;;8.48;100.00
19676;BME280;39539;52.202;9.876;2023-03-25T00:34:37;99353.88;;;8.32;100.00
19676;BME280;39539;52.202;9.876;2023-03-25T00:37:13;99379.06;;;8.41;100.00
19676;BME280;39539;52.202;9.876;2023-03-25T00:39:42;99377.66;;;8.39;100.00
19676;BME280;39539;52.202;9.876;2023-03-25T00:42:07;99372.97;;;8.22;100.00
19676;BME280;39539;52.202;9.876;2023-03-25T00:44:35;99382.25;;;8.13;100.00
19676;BME280;39539;52.202;9.876;2023-03-25T00:47:00;99373.50;;;7.94;100.00
19676;BME280;39539;52.202;9.876;2023-03-25T00:49:26;99376.00;;;7.89;100.00
19676;BME280;39539;52.202;9.876;2023-03-25T00:51:54;99371.84;;;7.81;100.00
19676;BME280;39539;52.202;9.876;2023-03-25T00:54:20;99376.88;;;7.83;100.00
19676;BME280;39539;52.202;9.876;2023-03-25T00:56:46;99386.13;;;7.92;100.00
19676;BME280;39539;52.202;9.876;2023-03-25T00:59:12;99384.09;;;7.94;100.00
19676;BME280;39539;52.202;9.876;2023-03-25T01:01:38;99383.50;;;7.92;100.00
19676;BME280;39539;52.202;9.876;2023-03-25T01:04:04;99385.69;;;7.95;100.00
19676;BME280;39539;52.202;9.876;2023-03-25T01:06:37;99374.03;;;7.84;100.00
19676;BME280;39539;52.202;9.876;2023-03-25T01:09:07;99372.78;;;7.87;100.00
19676;BME280;39539;52.202;9.876;2023-03-25T01:11:33;99379.16;;;7.98;100.00
19676;BME280;39539;52.202;9.876;2023-03-25T01:14:00;99383.78;;;8.02;100.00
19676;BME280;39539;52.202;9.876;2023-03-25T01:16:27;99373.00;;;8.04;100.00
19676;BME280;39539;52.202;9.876;2023-03-25T01:18:54;99377.00;;;8.06;100.00
19676;BME280;39539;52.202;9.876;2023-03-25T01:21:20;99374.50;;;8.12;100.00
19676;BME280;39539;52.202;9.876;2023-03-25T01:23:45;99363.72;;;8.13;100.00
19676;BME280;39539;52.202;9.876;2023-03-25T01:26:10;99373.91;;;8.28;100.00
19676;BME280;39539;52.202;9.876;2023-03-25T01:28:38;99365.31;;;8.32;100.00
19676;BME280;39539;52.202;9.876;2023-03-25T01:31:05;99366.88;;;8.52;100.00
19676;BME280;39539;52.202;9.876;2023-03-25T01:33:31;99365.16;;;8.58;100.00
19676;BME280;39539;52.202;9.876;2023-03-25T01:35:58;99345.78;;;8.45;100.00
19676;BME280;39539;52.202;9.876;2023-03-25T01:38:24;99378.34;;;8.64;100.00
19676;BME280;39539;52.202;9.876;2023-03-25T01:40:51;99368.41;;;8.60;100.00
19676;BME280;39539;52.202;9.876;2023-03-25T01:43:16;99361.41;;;8.65;100.00
19676;BME280;39539;52.202;9.876;2023-03-25T01:45:42;99366.97;;;8.75;100.00
19676;BME280;39539;52.202;9.876;2023-03-25T01:48:36;99374.94;;;8.87;100.00
19676;BME280;39539;52.202;9.876;2023-03-25T01:51:11;99355.22;;;8.83;100.00
19676;BME280;39539;52.202;9.876;2023-03-25T01:53:39;99356.13;;;8.89;100.00
19676;BME280;39539;52.202;9.876;2023-03-25T01:56:06;99350.75;;;8.95;100.00
19676;BME280;39539;52.202;9.876;2023-03-25T01:58:34;99346.47;;;8.94;100.00
19676;BME280;39539;52.202;9.876;2023-03-25T02:01:01;99335.63;;;8.84;100.00
19676;BME280;39539;52.202;9.876;2023-03-25T02:03:29;99347.50;;;8.82;100.00
19676;BME280;39539;52.202;9.876;2023-03-25T02:06:04;99351.75;;;8.83;100.00
19676;BME280;39539;52.202;9.876;2023-03-25T02:08:35;99354.19;;;8.84;100.00
19676;BME280;39539;52.202;9.876;2023-03-25T02:11:03;99359.69;;;8.83;100.00
19676;BME280;39539;52.202;9.876;2023-03-25T02:13:29;99360.41;;;8.78;100.00
19676;BME280;39539;52.202;9.876;2023-03-25T02:21:40;99357.22;;;8.58;100.00
19676;BME280;39539;52.202;9.876;2023-03-25T02:27:22;99349.94;;;8.23;100.00
19676;BME280;39539;52.202;9.876;2023-03-25T02:43:41;99364.59;;;8.37;100.00
19676;BME280;39539;52.202;9.876;2023-03-25T02:46:12;99360.81;;;8.33;100.00
19676;BME280;39539;52.202;9.876;2023-03-25T02:51:16;99359.28;;;8.25;100.00
19676;BME280;39539;52.202;9.876;2023-03-25T02:53:45;99358.03;;;8.28;100.00
19676;BME280;39539;52.202;9.876;2023-03-25T02:56:14;99346.78;;;8.32;100.00
19676;BME280;39539;52.202;9.876;2023-03-25T02:58:43;99361.53;;;8.40;100.00
19676;BME280;39539;52.202;9.876;2023-03-25T03:01:10;99358.97;;;8.33;100.00
19676;BME280;39539;52.202;9.876;2023-03-25T03:03:39;99359.06;;;8.27;100.00
19676;BME280;39539;52.202;9.876;2023-03-25T03:06:06;99361.72;;;8.27;100.00
19676;BME280;39539;52.202;9.876;2023-03-25T03:11:23;99350.84;;;8.17;100.00
19676;BME280;39539;52.202;9.876;2023-03-25T03:14:09;99357.28;;;8.21;100.00
19676;BME280;39539;52.202;9.876;2023-03-25T03:19:37;99339.81;;;8.20;100.00
19676;BME280;39539;52.202;9.876;2023-03-25T03:24:49;99347.59;;;8.15;100.00
19676;BME280;39539;52.202;9.876;2023-03-25T03:27:27;99328.94;;;8.09;100.00
19676;BME280;39539;52.202;9.876;2023-03-25T03:30:31;99335.41;;;7.95;100.00
19676;BME280;39539;52.202;9.876;2023-03-25T03:33:14;99336.75;;;7.86;100.00
19676;BME280;39539;52.202;9.876;2023-03-25T03:35:48;99333.91;;;7.69;100.00
19676;BME280;39539;52.202;9.876;2023-03-25T03:38:18;99333.91;;;7.69;100.00
19676;BME280;39539;52.202;9.876;2023-03-25T03:40:51;99329.50;;;7.63;100.00
19676;BME280;39539;52.202;9.876;2023-03-25T03:43:24;99334.00;;;7.62;100.00
19676;BME280;39539;52.202;9.876;2023-03-25T03:45:55;99348.25;;;7.61;100.00
19676;BME280;39539;52.202;9.876;2023-03-25T03:48:28;99337.38;;;7.51;100.00
19676;BME280;39539;52.202;9.876;2023-03-25T03:51:02;99352.34;;;7.57;100.00
19676;BME280;39539;52.202;9.876;2023-03-25T03:53:36;99364.69;;;7.63;100.00
19676;BME280;39539;52.202;9.876;2023-03-25T03:56:17;99353.38;;;7.75;100.00
19676;BME280;39539;52.202;9.876;2023-03-25T03:58:46;99361.75;;;7.90;100.00
19676;BME280;39539;52.202;9.876;2023-03-25T04:01:38;99356.16;;;7.98;100.00
19676;BME280;39539;52.202;9.876;2023-03-25T04:04:13;99349.25;;;7.97;100.00
19676;BME280;39539;52.202;9.876;2023-03-25T04:06:46;99363.22;;;8.04;100.00
19676;BME280;39539;52.202;9.876;2023-03-25T04:12:13;99347.97;;;8.18;100.00
19676;BME280;39539;52.202;9.876;2023-03-25T04:14:41;99354.63;;;8.21;100.00
19676;BME280;39539;52.202;9.876;2023-03-25T04:17:07;99349.69;;;8.13;100.00
19676;BME280;39539;52.202;9.876;2023-03-25T04:19:32;99352.19;;;8.07;100.00
19676;BME280;39539;52.202;9.876;2023-03-25T04:22:00;99358.03;;;8.09;100.00
19676;BME280;39539;52.202;9.876;2023-03-25T04:24:28;99364.28;;;8.15;100.00
19676;BME280;39539;52.202;9.876;2023-03-25T04:27:00;99363.03;;;8.18;100.00
19676;BME280;39539;52.202;9.876;2023-03-25T04:29:29;99367.16;;;8.14;100.00
19676;BME280;39539;52.202;9.876;2023-03-25T04:31:56;99363.78;;;8.06;100.00
19676;BME280;39539;52.202;9.876;2023-03-25T04:34:21;99368.81;;;7.96;100.00
19676;BME280;39539;52.202;9.876;2023-03-25T04:36:47;99370.56;;;7.84;100.00
19676;BME280;39539;52.202;9.876;2023-03-25T04:39:15;99383.94;;;7.71;100.00
19676;BME280;39539;52.202;9.876;2023-03-25T04:41:42;99357.91;;;7.49;100.00
19676;BME280;39539;52.202;9.876;2023-03-25T04:44:08;99368.34;;;7.44;100.00
19676;BME280;39539;52.202;9.876;2023-03-25T04:46:34;99368.41;;;7.37;100.00
19676;BME280;39539;52.202;9.876;2023-03-25T04:49:01;99365.06;;;7.24;100.00
19676;BME280;39539;52.202;9.876;2023-03-25T04:51:30;99370.97;;;7.26;100.00
19676;BME280;39539;52.202;9.876;2023-03-25T04:53:55;99377.13;;;7.19;100.00
19676;BME280;39539;52.202;9.876;2023-03-25T04:56:20;99383.22;;;7.20;100.00
19676;BME280;39539;52.202;9.876;2023-03-25T04:58:47;99384.00;;;7.20;100.00
19676;BME280;39539;52.202;9.876;2023-03-25T05:01:27;99379.94;;;7.25;100.00
19676;BME280;39539;52.202;9.876;2023-03-25T05:03:59;99371.84;;;7.19;100.00
19676;BME280;39539;52.202;9.876;2023-03-25T05:06:35;99371.28;;;7.11;100.00
19676;BME280;39539;52.202;9.876;2023-03-25T05:09:03;99377.56;;;7.16;100.00
19676;BME280;39539;52.202;9.876;2023-03-25T05:11:31;99368.78;;;7.16;100.00
19676;BME280;39539;52.202;9.876;2023-03-25T05:13:57;99373.28;;;7.15;100.00
19676;BME280;39539;52.202;9.876;2023-03-25T05:16:22;99380.75;;;7.18;100.00
19676;BME280;39539;52.202;9.876;2023-03-25T05:18:47;99370.19;;;7.18;100.00
19676;BME280;39539;52.202;9.876;2023-03-25T05:21:13;99382.00;;;7.16;100.00
19676;BME280;39539;52.202;9.876;2023-03-25T05:23:38;99383.69;;;7.10;100.00
19676;BME280;39539;52.202;9.876;2023-03-25T05:26:06;99378.81;;;7.07;100.00
19676;BME280;39539;52.202;9.876;2023-03-25T05:28:32;99384.09;;;7.07;100.00
19676;BME280;39539;52.202;9.876;2023-03-25T05:30:58;99371.56;;;7.03;100.00
19676;BME280;39539;52.202;9.876;2023-03-25T05:33:23;99381.31;;;7.02;100.00
19676;BME280;39539;52.202;9.876;2023-03-25T05:35:49;99380.72;;;7.00;100.00
19676;BME280;39539;52.202;9.876;2023-03-25T05:38:15;99387.84;;;7.00;100.00
19676;BME280;39539;52.202;9.876;2023-03-25T05:40:46;99387.97;;;7.11;100.00
19676;BME280;39539;52.202;9.876;2023-03-25T05:43:14;99387.84;;;7.25;100.00
19676;BME280;39539;52.202;9.876;2023-03-25T05:45:40;99379.09;;;7.24;100.00
19676;BME280;39539;52.202;9.876;2023-03-25T05:48:07;99372.41;;;7.22;100.00
19676;BME280;39539;52.202;9.876;2023-03-25T05:50:33;99371.84;;;7.19;100.00
19676;BME280;39539;52.202;9.876;2023-03-25T05:52:58;99377.38;;;7.36;100.00
19676;BME280;39539;52.202;9.876;2023-03-25T05:55:24;99385.47;;;7.60;100.00
19676;BME280;39539;52.202;9.876;2023-03-25T05:57:50;99382.09;;;7.71;100.00
19676;BME280;39539;52.202;9.876;2023-03-25T06:00:17;99388.44;;;7.70;100.00
19676;BME280;39539;52.202;9.876;2023-03-25T06:02:43;99388.28;;;7.83;100.00
19676;BME280;39539;52.202;9.876;2023-03-25T06:05:12;99365.81;;;7.93;100.00
19676;BME280;39539;52.202;9.876;2023-03-25T06:07:39;99384.75;;;8.08;100.00
19676;BME280;39539;52.202;9.876;2023-03-25T06:10:10;99380.25;;;8.27;100.00
19676;BME280;39539;52.202;9.876;2023-03-25T06:12:36;99386.31;;;8.46;100.00
19676;BME280;39539;52.202;9.876;2023-03-25T06:15:07;99367.56;;;8.47;100.00
19676;BME280;39539;52.202;9.876;2023-03-25T06:17:33;99379.88;;;8.42;100.00
19676;BME280;39539;52.202;9.876;2023-03-25T06:20:06;99383.91;;;8.44;100.00
19676;BME280;39539;52.202;9.876;2023-03-25T06:22:39;99379.63;;;8.43;100.00
19676;BME280;39539;52.202;9.876;2023-03-25T06:25:08;99374.91;;;8.45;100.00
19676;BME280;39539;52.202;9.876;2023-03-25T06:27:33;99367.13;;;8.50;100.00
19676;BME280;39539;52.202;9.876;2023-03-25T06:30:00;99372.09;;;8.59;100.00
19676;BME280;39539;52.202;9.876;2023-03-25T06:32:26;99367.38;;;8.61;100.00
19676;BME280;39539;52.202;9.876;2023-03-25T06:34:51;99369.81;;;8.74;100.00
19676;BME280;39539;52.202;9.876;2023-03-25T06:37:16;99369.03;;;8.73;100.00
19676;BME280;39539;52.202;9.876;2023-03-25T06:39:42;99376.03;;;8.68;100.00
19676;BME280;39539;52.202;9.876;2023-03-25T06:42:14;99358.84;;;8.59;100.00
19676;BME280;39539;52.202;9.876;2023-03-25T06:44:39;99373.50;;;8.73;100.00
19676;BME280;39539;52.202;9.876;2023-03-25T06:47:05;99378.69;;;8.80;100.00
19676;BME280;39539;52.202;9.876;2023-03-25T06:49:30;99346.88;;;8.56;100.00
19676;BME280;39539;52.202;9.876;2023-03-25T06:51:56;99368.09;;;8.80;100.00
19676;BME280;39539;52.202;9.876;2023-03-25T06:54:22;99380.81;;;8.89;100.00
19676;BME280;39539;52.202;9.876;2023-03-25T06:56:48;99358.69;;;8.95;100.00
19676;BME280;39539;52.202;9.876;2023-03-25T06:59:13;99371.75;;;9.09;100.00
19676;BME280;39539;52.202;9.876;2023-03-25T07:01:39;99380.03;;;9.01;100.00
19676;BME280;39539;52.202;9.876;2023-03-25T07:04:05;99382.31;;;8.97;100.00
19676;BME280;39539;52.202;9.876;2023-03-25T07:06:30;99360.28;;;8.73;100.00
19676;BME280;39539;52.202;9.876;2023-03-25T07:08:55;99381.00;;;8.76;100.00
19676;BME280;39539;52.202;9.876;2023-03-25T07:11:26;99373.66;;;8.90;100.00
19676;BME280;39539;52.202;9.876;2023-03-25T07:13:53;99360.88;;;8.87;100.00
19676;BME280;39539;52.202;9.876;2023-03-25T07:16:20;99388.88;;;8.94;100.00
19676;BME280;39539;52.202;9.876;2023-03-25T07:18:46;99375.97;;;8.86;100.00
19676;BME280;39539;52.202;9.876;2023-03-25T07:21:11;99362.13;;;8.84;100.00
19676;BME280;39539;52.202;9.876;2023-03-25T07:23:37;99375.63;;;8.94;100.00
19676;BME280;39539;52.202;9.876;2023-03-25T07:26:02;99376.47;;;9.07;100.00
19676;BME280;39539;52.202;9.876;2023-03-25T07:28:27;99364.81;;;9.19;100.00
19676;BME280;39539;52.202;9.876;2023-03-25T07:30:53;99380.84;;;9.60;100.00
19676;BME280;39539;52.202;9.876;2023-03-25T07:33:18;99362.84;;;9.62;100.00
19676;BME280;39539;52.202;9.876;2023-03-25T07:35:43;99383.59;;;9.77;100.00
19676;BME280;39539;52.202;9.876;2023-03-25T07:38:09;99373.25;;;9.52;100.00
19676;BME280;39539;52.202;9.876;2023-03-25T07:40:34;99374.63;;;9.42;100.00
19676;BME280;39539;52.202;9.876;2023-03-25T07:43:00;99367.94;;;9.28;100.00
19676;BME280;39539;52.202;9.876;2023-03-25T07:45:25;99382.00;;;9.40;100.00
19676;BME280;39539;52.202;9.876;2023-03-25T07:47:51;99372.44;;;9.63;100.00
19676;BME280;39539;52.202;9.876;2023-03-25T07:50:18;99366.63;;;9.78;100.00
19676;BME280;39539;52.202;9.876;2023-03-25T07:52:44;99348.31;;;10.17;97.80
19676;BME280;39539;52.202;9.876;2023-03-25T07:55:09;99376.53;;;10.34;97.62
19676;BME280;39539;52.202;9.876;2023-03-25T07:57:35;99378.50;;;10.39;98.27
19676;BME280;39539;52.202;9.876;2023-03-25T08:00:00;99389.81;;;10.34;96.40
19676;BME280;39539;52.202;9.876;2023-03-25T08:02:25;99373.44;;;10.26;96.43
19676;BME280;39539;52.202;9.876;2023-03-25T08:04:51;99374.50;;;10.13;99.35
19676;BME280;39539;52.202;9.876;2023-03-25T08:07:19;99370.91;;;10.31;97.25
19676;BME280;39539;52.202;9.876;2023-03-25T08:09:45;99376.44;;;10.58;96.83
19676;BME280;39539;52.202;9.876;2023-03-25T08:12:10;99386.47;;;10.85;95.86
19676;BME280;39539;52.202;9.876;2023-03-25T08:14:35;99395.97;;;11.48;92.34
19676;BME280;39539;52.202;9.876;2023-03-25T08:17:01;99380.72;;;11.99;89.45
19676;BME280;39539;52.202;9.876;2023-03-25T08:19:26;99390.03;;;12.73;85.30
19676;BME280;39539;52.202;9.876;2023-03-25T08:21:52;99374.78;;;12.41;85.07
19676;BME280;39539;52.202;9.876;2023-03-25T08:24:17;99380.09;;;11.92;85.42
19676;BME280;39539;52.202;9.876;2023-03-25T08:26:42;99363.41;;;11.41;88.06
19676;BME280;39539;52.202;9.876;2023-03-25T08:29:08;99362.69;;;10.95;89.34
19676;BME280;39539;52.202;9.876;2023-03-25T08:31:34;99340.38;;;10.62;90.29
19676;BME280;39539;52.202;9.876;2023-03-25T08:34:04;99340.66;;;9.92;96.62
19676;BME280;39539;52.202;9.876;2023-03-25T08:36:30;99363.41;;;9.76;100.00
19676;BME280;39539;52.202;9.876;2023-03-25T08:38:55;99366.22;;;9.57;100.00
19676;BME280;39539;52.202;9.876;2023-03-25T08:41:21;99348.94;;;9.43;100.00
19676;BME280;39539;52.202;9.876;2023-03-25T08:43:47;99364.34;;;9.70;100.00
19676;BME280;39539;52.202;9.876;2023-03-25T08:46:13;99365.25;;;9.75;100.00
19676;BME280;39539;52.202;9.876;2023-03-25T08:48:38;99353.94;;;9.80;100.00
19676;BME280;39539;52.202;9.876;2023-03-25T08:51:04;99353.69;;;9.81;100.00
19676;BME280;39539;52.202;9.876;2023-03-25T08:53:30;99366.56;;;10.01;100.00
19676;BME280;39539;52.202;9.876;2023-03-25T08:55:57;99358.31;;;10.26;100.00
19676;BME280;39539;52.202;9.876;2023-03-25T08:58:23;99361.09;;;10.31;99.41
19676;BME280;39539;52.202;9.876;2023-03-25T09:00:51;99346.66;;;10.56;97.20
19676;BME280;39539;52.202;9.876;2023-03-25T09:03:23;99339.72;;;10.55;97.15
19676;BME280;39539;52.202;9.876;2023-03-25T09:05:49;99350.47;;;10.31;98.19
19676;BME280;39539;52.202;9.876;2023-03-25T09:08:14;99360.97;;;10.55;98.71
19676;BME280;39539;52.202;9.876;2023-03-25T09:10:40;99361.41;;;10.35;100.00
19676;BME280;39539;52.202;9.876;2023-03-25T09:13:06;99340.88;;;10.19;100.00
19676;BME280;39539;52.202;9.876;2023-03-25T09:15:31;99347.28;;;10.06;100.00
19676;BME280;39539;52.202;9.876;2023-03-25T09:17:56;99362.97;;;10.19;100.00
19676;BME280;39539;52.202;9.876;2023-03-25T09:20:22;99344.22;;;9.97;100.00
19676;BME280;39539;52.202;9.876;2023-03-25T09:22:48;99360.56;;;10.06;97.74
19676;BME280;39539;52.202;9.876;2023-03-25T09:25:13;99361.69;;;10.10;97.57
19676;BME280;39539;52.202;9.876;2023-03-25T09:27:39;99346.56;;;10.22;97.07
19676;BME280;39539;52.202;9.876;2023-03-25T09:30:05;99359.06;;;10.67;94.72
19676;BME280;39539;52.202;9.876;2023-03-25T09:32:31;99349.66;;;10.93;91.86
19676;BME280;39539;52.202;9.876;2023-03-25T09:34:57;99356.66;;;10.83;93.09
19676;BME280;39539;52.202;9.876;2023-03-25T09:37:22;99347.31;;;10.80;90.33
19676;BME280;39539;52.202;9.876;2023-03-25T09:39:48;99327.19;;;10.67;91.75
19676;BME280;39539;52.202;9.876;2023-03-25T09:47:37;99366.81;;;14.69;73.65
19676;BME280;39539;52.202;9.876;2023-03-25T09:50:08;99348.75;;;14.13;71.66
19676;BME280;39539;52.202;9.876;2023-03-25T09:53:04;99343.31;;;13.82;71.98
19676;BME280;39539;52.202;9.876;2023-03-25T09:55:35;99341.22;;;13.37;75.09
19676;BME280;39539;52.202;9.876;2023-03-25T10:06:29;99334.09;;;11.80;82.90
19676;BME280;39539;52.202;9.876;2023-03-25T10:15:20;99337.88;;;10.89;89.70
19676;BME280;39539;52.202;9.876;2023-03-25T10:26:05;99339.34;;;10.80;90.55
19676;BME280;39539;52.202;9.876;2023-03-25T10:28:37;99329.41;;;11.26;87.72
19676;BME280;39539;52.202;9.876;2023-03-25T10:31:05;99335.00;;;11.63;83.80
19676;BME280;39539;52.202;9.876;2023-03-25T10:33:38;99327.53;;;11.65;81.99
19676;BME280;39539;52.202;9.876;2023-03-25T10:36:11;99332.16;;;11.92;80.67
19676;BME280;39539;52.202;9.876;2023-03-25T10:38:40;99316.84;;;12.58;78.42
19676;BME280;39539;52.202;9.876;2023-03-25T10:41:24;99322.78;;;12.98;76.39
19676;BME280;39539;52.202;9.876;2023-03-25T10:43:51;99306.75;;;12.98;75.70
19676;BME280;39539;52.202;9.876;2023-03-25T10:46:24;99315.84;;;12.97;74.41
19676;BME280;39539;52.202;9.876;2023-03-25T10:48:50;99291.25;;;12.57;72.47
19676;BME280;39539;52.202;9.876;2023-03-25T10:51:18;99312.88;;;12.34;73.84
19676;BME280;39539;52.202;9.876;2023-03-25T10:53:48;99291.28;;;12.03;76.03
19676;BME280;39539;52.202;9.876;2023-03-25T10:56:20;99298.22;;;12.04;76.85
19676;BME280;39539;52.202;9.876;2023-03-25T10:58:50;99303.72;;;11.76;78.71
19676;BME280;39539;52.202;9.876;2023-03-25T11:01:26;99303.41;;;11.72;79.65
19676;BME280;39539;52.202;9.876;2023-03-25T11:03:52;99289.53;;;11.48;80.43
19676;BME280;39539;52.202;9.876;2023-03-25T11:06:25;99290.56;;;11.69;80.83
19676;BME280;39539;52.202;9.876;2023-03-25T11:09:28;99284.25;;;11.92;77.75
19676;BME280;39539;52.202;9.876;2023-03-25T11:11:59;99279.34;;;12.11;77.48
19676;BME280;39539;52.202;9.876;2023-03-25T11:14:27;99281.81;;;12.45;79.13
19676;BME280;39539;52.202;9.876;2023-03-25T11:16:56;99282.34;;;12.79;74.68
19676;BME280;39539;52.202;9.876;2023-03-25T11:19:46;99282.19;;;13.33;78.43
19676;BME280;39539;52.202;9.876;2023-03-25T11:22:21;99280.78;;;13.78;73.27
19676;BME280;39539;52.202;9.876;2023-03-25T11:24:49;99296.88;;;13.93;74.09
19676;BME280;39539;52.202;9.876;2023-03-25T11:27:22;99289.69;;;13.36;74.27
19676;BME280;39539;52.202;9.876;2023-03-25T11:29:51;99294.34;;;13.56;74.06
19676;BME280;39539;52.202;9.876;2023-03-25T11:32:22;99290.31;;;13.54;72.00
19676;BME280;39539;52.202;9.876;2023-03-25T11:34:49;99284.66;;;13.50;74.61
19676;BME280;39539;52.202;9.876;2023-03-25T11:37:22;99281.91;;;13.30;73.72
19676;BME280;39539;52.202;9.876;2023-03-25T11:39:51;99290.88;;;13.18;74.15
19676;BME280;39539;52.202;9.876;2023-03-25T11:42:34;99286.75;;;12.95;76.35
19676;BME280;39539;52.202;9.876;2023-03-25T11:45:03;99288.72;;;12.73;74.58
19676;BME280;39539;52.202;9.876;2023-03-25T11:47:31;99276.97;;;12.69;76.24
19676;BME280;39539;52.202;9.876;2023-03-25T11:49:57;99284.91;;;12.64;73.48
19676;BME280;39539;52.202;9.876;2023-03-25T11:52:26;99290.47;;;12.30;74.01
19676;BME280;39539;52.202;9.876;2023-03-25T11:54:56;99272.00;;;12.18;74.22
19676;BME280;39539;52.202;9.876;2023-03-25T11:57:25;99281.63;;;12.56;73.52
19676;BME280;39539;52.202;9.876;2023-03-25T12:00:00;99283.00;;;12.59;73.45
19676;BME280;39539;52.202;9.876;2023-03-25T12:02:37;99285.13;;;12.57;73.07
19676;BME280;39539;52.202;9.876;2023-03-25T12:05:11;99283.56;;;12.29;73.95
19676;BME280;39539;52.202;9.876;2023-03-25T12:07:42;99283.31;;;12.08;76.22
19676;BME280;39539;52.202;9.876;2023-03-25T12:10:35;99281.78;;;12.12;78.63
19676;BME280;39539;52.202;9.876;2023-03-25T12:18:56;99282.13;;;12.21;78.42
19676;BME280;39539;52.202;9.876;2023-03-25T12:43:04;99294.94;;;10.97;93.52
19676;BME280;39539;52.202;9.876;2023-03-25T12:53:25;99321.41;;;10.13;100.00
19676;BME280;39539;52.202;9.876;2023-03-25T12:56:05;99340.09;;;10.47;100.00
19676;BME280;39539;52.202;9.876;2023-03-25T13:01:06;99329.09;;;10.72;100.00
19676;BME280;39539;52.202;9.876;2023-03-25T13:03:46;99328.31;;;10.71;99.57
19676;BME280;39539;52.202;9.876;2023-03-25T13:06:42;99325.75;;;10.76;97.04
19676;BME280;39539;52.202;9.876;2023-03-25T13:11:49;99332.97;;;10.98;95.22
19676;BME280;39539;52.202;9.876;2023-03-25T13:14:31;99332.47;;;11.18;94.21
19676;BME280;39539;52.202;9.876;2023-03-25T13:17:01;99324.69;;;11.50;94.38
19676;BME280;39539;52.202;9.876;2023-03-25T13:19:31;99328.03;;;11.62;90.72
19676;BME280;39539;52.202;9.876;2023-03-25T13:22:17;99316.25;;;11.80;93.72
19676;BME280;39539;52.202;9.876;2023-03-25T13:24:51;99314.56;;;11.91;90.73
19676;BME280;39539;52.202;9.876;2023-03-25T13:27:19;99309.97;;;11.64;87.32
19676;BME280;39539;52.202;9.876;2023-03-25T13:29:48;99303.06;;;11.63;90.17
19676;BME280;39539;52.202;9.876;2023-03-25T13:32:22;99313.06;;;11.56;91.47
19676;BME280;39539;52.202;9.876;2023-03-25T13:35:22;99302.31;;;11.29;92.00
19676;BME280;39539;52.202;9.876;2023-03-25T13:37:57;99299.44;;;11.14;91.58
19676;BME280;39539;52.202;9.876;2023-03-25T13:40:38;99301.91;;;10.82;93.96
19676;BME280;39539;52.202;9.876;2023-03-25T13:43:28;99285.78;;;10.71;95.72
19676;BME280;39539;52.202;9.876;2023-03-25T13:48:48;99297.88;;;10.62;95.49
19676;BME280;39539;52.202;9.876;2023-03-25T13:51:17;99318.06;;;10.63;97.38
19676;BME280;39539;52.202;9.876;2023-03-25T13:53:54;99313.81;;;10.62;97.79
19676;BME280;39539;52.202;9.876;2023-03-25T14:10:27;99349.34;;;10.44;97.28
19676;BME280;39539;52.202;9.876;2023-03-25T14:12:56;99365.22;;;10.39;96.53
19676;BME280;39539;52.202;9.876;2023-03-25T14:15:26;99386.78;;;10.43;100.00
19676;BME280;39539;52.202;9.876;2023-03-25T14:17:54;99372.84;;;10.36;100.00
19676;BME280;39539;52.202;9.876;2023-03-25T14:20:26;99379.34;;;10.16;100.00
19676;BME280;39539;52.202;9.876;2023-03-25T14:22:58;99382.09;;;10.21;100.00
19676;BME280;39539;52.202;9.876;2023-03-25T14:27:56;99370.53;;;10.39;100.00
19676;BME280;39539;52.202;9.876;2023-03-25T14:30:28;99388.03;;;10.52;100.00
19676;BME280;39539;52.202;9.876;2023-03-25T14:32:54;99377.44;;;10.69;100.00
19676;BME280;39539;52.202;9.876;2023-03-25T14:45:59;99379.72;;;11.28;99.45
19676;BME280;39539;52.202;9.876;2023-03-25T14:56:33;99381.66;;;10.98;97.21
19676;BME280;39539;52.202;9.876;2023-03-25T14:59:14;99365.94;;;10.97;98.81
19676;BME280;39539;52.202;9.876;2023-03-25T15:01:42;99386.88;;;10.93;97.42
19676;BME280;39539;52.202;9.876;2023-03-25T15:04:24;99380.97;;;10.74;98.41
19676;BME280;39539;52.202;9.876;2023-03-25T15:06:53;99373.75;;;10.41;100.00
19676;BME280;39539;52.202;9.876;2023-03-25T15:09:19;99374.94;;;10.33;100.00
19676;BME280;39539;52.202;9.876;2023-03-25T15:12:02;99371.47;;;10.21;100.00
19676;BME280;39539;52.202;9.876;2023-03-25T15:14:40;99383.72;;;10.22;100.00
19676;BME280;39539;52.202;9.876;2023-03-25T15:17:11;99376.50;;;10.06;100.00
19676;BME280;39539;52.202;9.876;2023-03-25T15:22:30;99357.66;;;9.67;100.00
19676;BME280;39539;52.202;9.876;2023-03-25T15:24:57;99353.28;;;9.61;100.00
19676;BME280;39539;52.202;9.876;2023-03-25T15:33:03;99368.09;;;10.38;100.00
19676;BME280;39539;52.202;9.876;2023-03-25T15:35:40;99367.59;;;10.69;100.00
19676;BME280;39539;52.202;9.876;2023-03-25T15:43:53;99351.53;;;10.30;100.00
19676;BME280;39539;52.202;9.876;2023-03-25T15:54:49;99372.03;;;9.95;100.00
19676;BME280;39539;52.202;9.876;2023-03-25T15:57:22;99375.50;;;9.83;100.00